Rincon (215, 217, 682) Station Data

Red Flag Warning: No
Fire Weather Zone: 250
SDGE Region: North East
Lat/Lon: 33.288/-116.956

Observations

Time Wind Speed/Gust Temp(F) RH Fuel Moist Fuel Temp(F) Dewpt(F) Tmax(F) Tmin(F) Accum Precip 10-min Precip SL Press(mb)
5/24 8:20am 13 2 G 4 58° 100% - - 58° 61.5° 53.1° - - 946.0
5/24 8:10am 205 2 G 4 57° 100% - - 57° 61.5° 53.1° - - 946.0
5/24 8:00am 311 1 G 4 56° 100% - - 56° 61.5° 53.1° - - 946.0
5/24 7:50am 250 5 G 8 56° 100% - - 56° 61.5° 53.1° - - 946.0
5/24 7:40am 12 1 G 4 56° 100% - - 56° 61.5° 53.1° - - 946.0
5/24 7:30am 29 2 G 5 55° 100% - - 55° 61.5° 53.1° - - 945.0
5/24 7:20am 254 2 G 3 55° 100% - - 55° 61.5° 53.1° - - 945.0
5/24 7:10am 91 1 G 3 54° 100% - - 55° 61.5° 53.1° - - 945.0
5/24 7:00am 180 2 G 4 54° 100% - - 54° 61.5° 53.1° - - 945.0
5/24 6:50am 202 2 G 5 54° 100% - - 54° 61.5° 53.1° - - 945.0
5/24 6:40am 99 2 G 3 54° 100% - - 54° 61.5° 53.1° - - 945.0
5/24 6:30am 211 2 G 2 54° 100% - - 54° 61.5° 53.1° - - 945.0
5/24 6:20am 77 1 G 3 54° 100% - - 54° 61.5° 53.1° - - 945.0
5/24 6:10am 47 1 G 2 53° 100% - - 53° 61.5° 53.1° - - 944.0
5/24 6:00am 264 2 G 4 54° 100% - - 54° 61.5° 53.1° - - 944.0
5/24 5:50am 69 3 G 5 54° 100% - - 54° 61.5° 53.1° - - 945.0
5/24 5:40am 30 2 G 3 54° 100% - - 54° 61.5° 53.1° - - 944.0
5/24 5:30am 302 2 G 5 54° 100% - - 54° 61.5° 53.2° - - 943.0
5/24 5:20am 72 3 G 5 55° 100% - - 55° 61.5° 54° - - 944.0
5/24 5:10am 65 2 G 4 56° 100% - - 56° 61.5° 54° - - 944.0
5/24 5:00am 74 1 G 2 55° 100% - - 55° 61.5° 54° - - 944.0
5/24 4:50am 183 1 G 3 55° 100% - - 55° 61.5° 54° - - 943.0
5/24 4:40am 72 2 G 4 56° 100% - - 56° 61.5° 55° - - 943.0
5/24 4:30am 82 2 G 3 56° 100% - - 56° 61.5° 55.3° - - 942.0
5/24 4:20am 9 0 G 1 56° 100% - - 56° 61.5° 55.3° - - 940.0
5/24 4:10am 22 2 G 5 56° 100% - - 56° 61.5° 55.3° - - 940.0
5/24 4:00am 71 3 G 4 57° 100% - - 57° 61.5° 56° - - 943.0
5/24 3:50am 56 2 G 4 57° 100% - - 57° 61.5° 56° - - 944.0
5/24 3:40am 70 1 G 2 57° 100% - - 57° 61.5° 56.1° - - 945.0
5/24 3:30am 83 2 G 3 57° 100% - - 57° 61.5° 56.1° - - 945.0
5/24 3:20am 103 3 G 4 57° 100% - - 57° 61.5° 56.1° - - 944.0
5/24 3:10am 65 2 G 3 57° 100% - - 57° 61.5° 56.1° - - 944.0
5/24 3:00am 13 1 G 2 57° 100% - - 57° 61.5° 56.4° - - 944.0
5/24 2:50am 110 1 G 2 57° 100% - - 57° 61.5° 56.4° - - 943.0
5/24 2:40am 75 3 G 4 57° 100% - - 57° 61.5° 56.5° - - 943.0
5/24 2:30am 66 3 G 5 58° 100% - - 58° 61.5° 57.3° - - 944.0
5/24 2:20am 58 1 G 2 58° 100% - - 58° 61.5° 57.4° - - 944.0
5/24 2:10am 60 1 G 2 58° 100% - - 58° 61.5° 57.4° - - 944.0
5/24 2:00am 54 1 G 2 58° 100% - - 58° 61.5° 57.5° - - 944.0
5/24 1:50am 350 0 G 1 58° 100% - - 58° 61.5° 57.9° - - 944.0
5/24 1:40am 6 1 G 2 58° 100% - - 58° 61.5° 57.9° - - 943.0
5/24 1:30am 116 1 G 4 59° 100% - - 59° 61.5° 58.1° - - 942.0
5/24 1:20am 38 3 G 4 59° 100% - - 59° 61.5° 58.7° - - 943.0
5/24 1:10am 355 2 G 3 59° 100% - - 59° 61.5° 58.8° - - 940.0
5/24 1:00am 285 1 G 1 60° 93% - - 58° 61.5° 59.3° - - 933.0
5/24 12:50am 124 2 G 3 61° 93% - - 58° 61.5° 59.9° - - 933.0
5/24 12:40am 66 3 G 5 60° 91% - - 58° 61.5° 59.9° - - 933.0
5/24 12:30am 55 2 G 4 61° 93% - - 59° 61.5° 60.3° - - 933.0
5/24 12:20am 84 1 G 2 61° 87% - - 57° 61.5° 60.4° - - 931.0
5/24 12:10am 80 3 G 4 61° 97% - - 60° 61.5° 60.8° - - 936.0
5/24 12:00am 89 3 G 4 61° 95% - - 60° 92.4° 55.4° - - 934.0
5/23 11:50pm 136 0 G 1 61° 87% - - 57° 92.4° 55.4° - - 931.0
5/23 11:40pm 209 0 G 1 62° 84% - - 57° 92.4° 55.4° - - 930.0
5/23 11:30pm 88 2 G 3 63° 82% - - 57° 92.4° 55.4° - - 929.0
5/23 11:20pm 97 3 G 4 63° 80% - - 57° 92.4° 55.4° - - 928.0
5/23 11:10pm 105 1 G 3 64° 74% - - 56° 92.4° 55.4° - - 926.0
5/23 11:00pm 80 0 G 2 65° 71% - - 55° 92.4° 55.4° - - 925.0
5/23 10:50pm 55 1 G 3 65° 73% - - 56° 92.4° 55.4° - - 926.0
5/23 10:40pm 104 1 G 1 65° 74% - - 57° 92.4° 55.4° - - 926.0
5/23 10:30pm 218 1 G 2 66° 71% - - 56° 92.4° 55.4° - - 925.0
5/23 10:20pm 53 2 G 4 66° 66% - - 55° 92.4° 55.4° - - 923.0
5/23 10:10pm 59 4 G 5 67° 63% - - 54° 92.4° 55.4° - - 922.0
5/23 10:00pm 62 3 G 4 68° 62% - - 55° 92.4° 55.4° - - 922.0
5/23 9:50pm 57 4 G 5 67° 66% - - 55° 92.4° 55.4° - - 924.0
5/23 9:40pm 22 3 G 4 68° 68% - - 57° 92.4° 55.4° - - 925.0
5/23 9:30pm 4 1 G 2 67° 68% - - 57° 92.4° 55.4° - - 924.0
5/23 9:20pm 46 1 G 2 68° 66% - - 56° 92.4° 55.4° - - 923.0
5/23 9:10pm 74 4 G 6 68° 66% - - 56° 92.4° 55.4° - - 924.0
5/23 9:00pm 66 4 G 5 68° 66% - - 56° 92.4° 55.4° - - 924.0
5/23 8:50pm 58 3 G 5 69° 65% - - 56° 92.4° 55.4° - - 923.0
5/23 8:40pm 131 1 G 2 69° 64% - - 56° 92.4° 55.4° - - 923.0
5/23 8:30pm 146 2 G 4 70° 60% - - 56° 92.4° 55.4° - - 922.0
5/23 8:20pm 70 3 G 5 71° 57% - - 56° 92.4° 55.4° - - 921.0
5/23 8:10pm 63 2 G 3 72° 56% - - 55° 92.4° 55.4° - - 921.0
5/23 8:00pm 307 2 G 4 72° 55% - - 55° 92.4° 55.4° - - 920.0
5/23 7:50pm 311 3 G 5 73° 54% - - 55° 92.4° 55.4° - - 920.0
5/23 7:40pm 302 4 G 7 74° 51% - - 55° 92.4° 55.4° - - 919.0
5/23 7:30pm 307 4 G 7 76° 48% - - 54° 92.4° 55.4° - - 918.0
5/23 7:20pm 323 4 G 8 76° 46% - - 54° 92.4° 55.4° - - 918.0
5/23 7:10pm 317 7 G 10 77° 45% - - 54° 92.4° 55.4° - - 917.0
5/23 7:00pm 315 6 G 11 78° 43% - - 54° 92.4° 55.4° - - 917.0
5/23 6:50pm 310 6 G 11 79° 42% - - 54° 92.4° 55.4° - - 917.0
5/23 6:40pm 312 7 G 12 80° 39% - - 53° 92.4° 55.4° - - 916.0
5/23 6:30pm 308 8 G 12 82° 36% - - 52° 92.4° 55.4° - - 915.0
5/23 6:20pm 310 8 G 13 83° 34% - - 52° 92.4° 55.4° - - 915.0
5/23 6:10pm 309 7 G 12 85° 31% - - 51° 92.4° 55.4° - - 914.0
5/23 6:00pm 293 7 G 12 86° 27% - - 48° 92.4° 55.4° - - 913.0
5/23 5:50pm 291 6 G 10 87° 23% - - 45° 92.4° 55.4° - - 912.0
5/23 5:40pm 296 6 G 8 87° 23% - - 45° 92.4° 55.4° - - 912.0
5/23 5:30pm 299 4 G 7 88° 22% - - 44° 92.4° 55.4° - - 912.0
5/23 5:20pm 286 4 G 9 88° 22% - - 44° 92.4° 55.4° - - 912.0
5/23 5:10pm 307 4 G 7 88° 22% - - 44° 92.4° 55.4° - - 911.0
5/23 5:00pm 251 2 G 5 88° 22% - - 44° 92.4° 55.4° - - 911.0
5/23 4:50pm 281 3 G 7 88° 21% - - 44° 92.4° 55.4° - - 911.0
5/23 4:40pm 278 3 G 7 88° 22% - - 44° 92.4° 55.4° - - 911.0
5/23 4:30pm 279 3 G 8 88° 22% - - 44° 92.4° 55.4° - - 911.0
5/23 4:20pm 249 3 G 7 87° 22% - - 44° 92.4° 55.4° - - 911.0
5/23 4:10pm 334 4 G 8 86° 23% - - 44° 92.4° 55.4° - - 911.0
5/23 4:00pm 307 5 G 8 86° 24% - - 45° 92.4° 55.4° - - 912.0
5/23 3:50pm 291 4 G 9 85° 29% - - 49° 92.4° 55.4° - - 913.0
5/23 3:40pm 273 4 G 8 85° 31% - - 50° 92.4° 55.4° - - 914.0
5/23 3:30pm 286 5 G 9 84° 31% - - 50° 92.4° 55.4° - - 914.0
5/23 3:20pm 302 6 G 11 84° 33% - - 52° 92.4° 55.4° - - 915.0
5/23 3:10pm 306 6 G 12 83° 34% - - 52° 92.4° 55.4° - - 915.0
5/23 3:00pm 338 7 G 13 83° 36% - - 53° 92.4° 55.4° - - 916.0
5/23 2:50pm 291 7 G 12 83° 36% - - 53° 92.4° 55.4° - - 916.0
5/23 2:40pm 297 8 G 14 83° 39% - - 55° 92.4° 55.4° - - 917.0
5/23 2:30pm 319 9 G 15 83° 39% - - 56° 92.4° 55.4° - - 917.0
5/23 2:20pm 307 7 G 14 84° 38% - - 56° 92.4° 55.4° - - 917.0
5/23 2:10pm 296 7 G 12 83° 39% - - 56° 92.4° 55.4° - - 917.0
5/23 2:00pm 293 8 G 13 82° 41% - - 56° 92.4° 55.4° - - 917.0
5/23 1:50pm 310 8 G 12 82° 41% - - 56° 92.4° 55.4° - - 917.0
5/23 1:40pm 307 8 G 13 81° 42% - - 56° 92.4° 55.4° - - 917.0
5/23 1:30pm 310 9 G 14 81° 42% - - 56° 92.4° 55.4° - - 917.0
5/23 1:20pm 311 9 G 14 81° 41% - - 56° 92.4° 55.4° - - 917.0
5/23 1:10pm 309 9 G 17 81° 41% - - 55° 92.4° 55.4° - - 917.0
5/23 1:00pm 311 10 G 15 82° 40% - - 55° 92.4° 55.4° - - 917.0
5/23 12:50pm 308 10 G 15 83° 38% - - 55° 92.4° 55.4° - - 917.0
5/23 12:40pm 314 9 G 17 84° 36% - - 54° 92.4° 55.4° - - 916.0
5/23 12:30pm 312 12 G 19 85° 33% - - 53° 92.4° 55.4° - - 915.0
5/23 12:20pm 315 11 G 18 88° 29% - - 52° 92.4° 55.4° - - 914.0
5/23 12:10pm 289 7 G 12 92° 22% - - 48° 92.4° 55.4° - - 912.0
5/23 12:00pm 286 5 G 9 92° 21% - - 47° 92.4° 55.4° - - 912.0
5/23 11:50am 300 4 G 9 92° 21% - - 47° 92.4° 55.4° - - 912.0
5/23 11:40am 287 4 G 7 91° 20% - - 45° 91.8° 55.4° - - 911.0
5/23 11:30am 191 1 G 4 91° 20% - - 45° 91.7° 55.4° - - 911.0
5/23 11:20am 121 1 G 3 89° 21% - - 45° 90.3° 55.4° - - 911.0
5/23 11:10am 268 2 G 4 88° 24% - - 46° 88° 55.4° - - 911.0
5/23 11:00am 283 3 G 6 87° 24% - - 46° 87.7° 55.4° - - 911.0
5/23 10:50am 264 3 G 7 86° 27% - - 48° 87.4° 55.4° - - 912.0
5/23 10:40am 250 2 G 7 85° 28% - - 48° 85.2° 55.4° - - 912.0
5/23 10:30am 259 2 G 6 84° 30% - - 49° 84.1° 55.4° - - 913.0
5/23 10:20am 265 2 G 5 82° 32% - - 49° 83.1° 55.4° - - 913.0
5/23 10:10am 282 3 G 5 81° 34% - - 50° 81.7° 55.4° - - 914.0
5/23 10:00am 251 2 G 5 81° 32% - - 49° 81.7° 55.4° - - 913.0
5/23 9:50am 281 0 G 2 79° 33% - - 48° 80.8° 55.4° - - 913.0
5/23 9:40am 224 2 G 4 76° 37% - - 48° 77.6° 55.4° - - 914.0
5/23 9:30am 259 2 G 5 76° 37% - - 48° 76.9° 55.4° - - 914.0
5/23 9:20am 323 1 G 2 76° 39% - - 49° 76.6° 55.4° - - 914.0
5/23 9:10am 232 1 G 4 74° 43% - - 50° 75.4° 55.4° - - 916.0
5/23 9:00am 232 2 G 3 72° 48% - - 52° 73.2° 55.4° - - 917.0
5/23 8:50am 219 1 G 3 72° 50% - - 53° 73.2° 55.4° - - 918.0
5/23 8:40am 186 1 G 2 71° 51% - - 52° 72.4° 55.4° - - 918.0
5/23 8:30am 176 1 G 3 68° 58% - - 53° 69.9° 55.4° - - 921.0
5/23 8:20am 205 2 G 3 66° 64% - - 54° 68.2° 55.4° - - 923.0
5/23 8:10am 217 2 G 3 65° 67% - - 54° 68.2° 55.4° - - 923.0
5/23 8:00am 222 1 G 2 65° 66% - - 53° 68.2° 55.4° - - 923.0
5/23 7:50am 234 1 G 3 66° 68% - - 56° 68.2° 55.4° - - 924.0
5/23 7:40am 247 0 G 2 67° 67% - - 56° 68.2° 55.4° - - 924.0
5/23 7:30am 162 1 G 2 64° 73% - - 55° 65.2° 55.4° - - 926.0
5/23 7:20am 243 1 G 2 64° 72% - - 54° 65.2° 55.4° - - 924.0
5/23 7:10am 138 1 G 2 64° 70% - - 54° 65.2° 55.4° - - 924.0
5/23 7:00am 141 1 G 2 62° 74% - - 54° 62.9° 55.4° - - 925.0
5/23 6:50am 120 1 G 2 59° 74% - - 51° 61.9° 55.4° - - 925.0
5/23 6:40am 80 2 G 4 58° 74% - - 49° 61.9° 55.4° - - 924.0
5/23 6:30am 51 2 G 3 57° 72% - - 48° 61.9° 55.4° - - 924.0
5/23 6:20am 15 0 G 3 56° 78% - - 50° 61.9° 55.4° - - 926.0
5/23 6:10am 39 1 G 2 56° 77% - - 49° 61.9° 55.4° - - 925.0
5/23 6:00am 35 2 G 5 58° 71% - - 48° 61.9° 55.4° - - 923.0